createdAt,value
2019-02-02T00:00:24.628Z,928.01
2019-02-02T00:01:24.635Z,928.00
2019-02-02T00:02:24.683Z,928.04
2019-02-02T00:03:24.818Z,928.06
2019-02-02T00:04:24.782Z,928.03
2019-02-02T00:05:24.831Z,928.05
2019-02-02T00:06:24.883Z,928.05
2019-02-02T00:07:24.925Z,928.10
2019-02-02T00:08:24.979Z,928.12
2019-02-02T00:09:25.019Z,928.16
2019-02-02T00:10:25.127Z,928.23
2019-02-02T00:11:25.130Z,928.24
2019-02-02T00:12:25.190Z,928.27
2019-02-02T00:13:25.207Z,928.29
2019-02-02T00:14:25.266Z,928.29
2019-02-02T00:15:25.326Z,928.31
2019-02-02T00:16:25.368Z,928.27
2019-02-02T00:17:25.442Z,928.23
2019-02-02T00:18:25.472Z,928.28
2019-02-02T00:19:25.544Z,928.24
2019-02-02T00:20:25.591Z,928.24
2019-02-02T00:21:25.666Z,928.20
2019-02-02T00:22:25.726Z,928.25
2019-02-02T00:23:25.727Z,928.22
2019-02-02T00:24:25.789Z,928.26
2019-02-02T00:25:25.811Z,928.28
2019-02-02T00:26:25.885Z,928.27
2019-02-02T00:27:25.920Z,928.29
2019-02-02T00:28:25.982Z,928.35
2019-02-02T00:29:26.008Z,928.33
2019-02-02T00:30:26.107Z,928.32
2019-02-02T00:31:26.107Z,928.36
2019-02-02T00:32:26.168Z,928.39
2019-02-02T00:33:26.354Z,928.41
2019-02-02T00:34:26.273Z,928.47
2019-02-02T00:35:26.322Z,928.51
2019-02-02T00:36:26.383Z,928.55
2019-02-02T00:37:26.460Z,928.57
2019-02-02T00:38:26.486Z,928.54
2019-02-02T00:39:26.530Z,928.56
2019-02-02T00:40:26.566Z,928.58
2019-02-02T00:41:26.598Z,928.55
2019-02-02T00:42:26.674Z,928.55
2019-02-02T00:43:26.731Z,928.59
2019-02-02T00:44:26.776Z,928.55
2019-02-02T00:45:26.818Z,928.58
2019-02-02T00:46:26.924Z,928.58
2019-02-02T00:47:26.930Z,928.59
2019-02-02T00:48:26.988Z,928.62
2019-02-02T00:49:27.028Z,928.61
2019-02-02T00:50:27.110Z,928.66
2019-02-02T00:51:27.166Z,928.65
2019-02-02T00:52:27.204Z,928.66
2019-02-02T00:53:27.225Z,928.66
2019-02-02T00:54:27.250Z,928.69
2019-02-02T00:55:27.294Z,928.70
2019-02-02T00:56:27.403Z,928.70
2019-02-02T00:57:27.397Z,928.70
2019-02-02T00:58:27.477Z,928.73
2019-02-02T00:59:27.498Z,928.70
2019-02-02T01:00:27.568Z,928.68
2019-02-02T01:01:27.660Z,928.70
2019-02-02T01:02:27.657Z,928.66
2019-02-02T01:03:27.735Z,928.71
2019-02-02T01:04:27.807Z,928.69
2019-02-02T01:05:27.813Z,928.70
2019-02-02T01:06:27.970Z,928.65
2019-02-02T01:07:27.963Z,928.71
2019-02-02T01:08:27.962Z,928.65
2019-02-02T01:09:28.027Z,928.63
2019-02-02T01:10:28.066Z,928.65
2019-02-02T01:11:28.128Z,928.60
2019-02-02T01:12:28.144Z,928.58
2019-02-02T01:13:28.324Z,928.53
2019-02-02T01:14:28.237Z,928.52
2019-02-02T01:15:28.293Z,928.49
2019-02-02T01:16:28.373Z,928.50
2019-02-02T01:17:28.406Z,928.53
2019-02-02T01:18:28.457Z,928.57
2019-02-02T01:19:28.503Z,928.50
2019-02-02T01:20:28.573Z,928.55
2019-02-02T01:21:28.649Z,928.54
2019-02-02T01:22:28.704Z,928.51
2019-02-02T01:23:28.758Z,928.54
2019-02-02T01:24:28.753Z,928.50
2019-02-02T01:25:28.808Z,928.54
2019-02-02T01:26:28.851Z,928.55
2019-02-02T01:27:28.918Z,928.50
2019-02-02T01:28:28.987Z,928.46
2019-02-02T01:29:29.000Z,928.46
2019-02-02T01:30:29.093Z,928.49
2019-02-02T01:31:29.108Z,928.47
2019-02-02T01:32:29.153Z,928.48
2019-02-02T01:33:29.183Z,928.52
2019-02-02T01:34:29.301Z,928.50
2019-02-02T01:35:29.348Z,928.55
2019-02-02T01:36:29.348Z,928.55
2019-02-02T01:37:29.381Z,928.61
2019-02-02T01:38:29.432Z,928.60
2019-02-02T01:39:29.500Z,928.60
2019-02-02T01:40:29.584Z,928.60
2019-02-02T01:41:29.669Z,928.61
2019-02-02T01:42:29.644Z,928.61
2019-02-02T01:43:29.698Z,928.58
2019-02-02T01:44:29.745Z,928.55
2019-02-02T01:45:29.788Z,928.61
2019-02-02T01:46:29.842Z,928.58
2019-02-02T01:47:29.910Z,928.64
2019-02-02T01:48:29.951Z,928.64
2019-02-02T01:49:30.023Z,928.67
2019-02-02T01:50:30.075Z,928.71
2019-02-02T01:51:30.110Z,928.74
2019-02-02T01:52:30.124Z,928.79
2019-02-02T01:53:30.235Z,928.77
2019-02-02T01:54:30.231Z,928.76
2019-02-02T01:55:30.298Z,928.72
2019-02-02T01:56:30.382Z,928.71
2019-02-02T01:57:30.375Z,928.69
2019-02-02T01:58:30.486Z,928.67
2019-02-02T01:59:30.498Z,928.65
2019-02-02T02:00:30.586Z,928.66
2019-02-02T02:01:30.597Z,928.67
2019-02-02T02:02:30.625Z,928.65
2019-02-02T02:03:30.680Z,928.66
2019-02-02T02:04:30.746Z,928.67
2019-02-02T02:05:30.775Z,928.68
2019-02-02T02:06:30.834Z,928.64
2019-02-02T02:07:30.881Z,928.66
2019-02-02T02:08:30.930Z,928.66
2019-02-02T02:09:30.970Z,928.69
2019-02-02T02:10:31.031Z,928.67
2019-02-02T02:11:31.078Z,928.72
2019-02-02T02:12:31.132Z,928.73
2019-02-02T02:13:31.200Z,928.71
2019-02-02T02:14:31.229Z,928.71
2019-02-02T02:15:31.276Z,928.71
2019-02-02T02:16:31.329Z,928.69
2019-02-02T02:17:31.378Z,928.67
2019-02-02T02:18:31.414Z,928.61
2019-02-02T02:19:31.465Z,928.60
2019-02-02T02:20:31.526Z,928.64
2019-02-02T02:21:31.567Z,928.60
2019-02-02T02:22:40.934Z,928.58
2019-02-02T02:23:31.708Z,928.60
2019-02-02T02:24:31.722Z,928.57
2019-02-02T02:25:31.754Z,928.58
2019-02-02T02:26:31.859Z,928.58
2019-02-02T02:27:31.867Z,928.60
2019-02-02T02:28:31.930Z,928.57
2019-02-02T02:29:31.978Z,928.60
2019-02-02T02:30:31.999Z,928.63
2019-02-02T02:31:32.064Z,928.61
2019-02-02T02:32:32.119Z,928.61
2019-02-02T02:33:32.162Z,928.58
2019-02-02T02:34:32.215Z,928.56
2019-02-02T02:35:32.261Z,928.57
2019-02-02T02:36:32.338Z,928.55
2019-02-02T02:37:32.359Z,928.52
2019-02-02T02:38:32.440Z,928.53
2019-02-02T02:39:32.459Z,928.55
2019-02-02T02:40:32.497Z,928.50
2019-02-02T02:41:32.569Z,928.44
2019-02-02T02:42:32.607Z,928.47
2019-02-02T02:43:32.651Z,928.45
2019-02-02T02:44:32.710Z,928.41
2019-02-02T02:45:32.763Z,928.45
2019-02-02T02:46:32.841Z,928.44
2019-02-02T02:47:32.911Z,928.45
2019-02-02T02:48:32.900Z,928.39
2019-02-02T02:49:32.941Z,928.40
2019-02-02T02:50:33.000Z,928.38
2019-02-02T02:51:33.040Z,928.42
2019-02-02T02:52:33.080Z,928.42
2019-02-02T02:53:33.157Z,928.41
2019-02-02T02:54:33.198Z,928.41
2019-02-02T02:55:33.275Z,928.47
2019-02-02T02:56:33.295Z,928.50
2019-02-02T02:57:33.360Z,928.46
2019-02-02T02:58:41.090Z,928.48
2019-02-02T02:59:33.439Z,928.48
2019-02-02T03:00:33.497Z,928.50
2019-02-02T03:01:33.545Z,928.47
2019-02-02T03:02:33.584Z,928.47
2019-02-02T03:03:33.641Z,928.50
2019-02-02T03:04:33.692Z,928.43
2019-02-02T03:05:33.738Z,928.40
2019-02-02T03:06:33.814Z,928.42
2019-02-02T03:07:33.849Z,928.42
2019-02-02T03:08:33.888Z,928.42
2019-02-02T03:09:33.917Z,928.40
2019-02-02T03:10:33.991Z,928.38
2019-02-02T03:11:34.036Z,928.40
2019-02-02T03:12:34.093Z,928.41
2019-02-02T03:13:34.131Z,928.37
2019-02-02T03:14:34.187Z,928.40
2019-02-02T03:15:34.227Z,928.41
2019-02-02T03:16:34.293Z,928.41
2019-02-02T03:17:34.317Z,928.41
2019-02-02T03:18:34.418Z,928.40
2019-02-02T03:19:34.418Z,928.40
2019-02-02T03:20:34.467Z,928.40
2019-02-02T03:21:34.522Z,928.39
2019-02-02T03:22:34.591Z,928.36
2019-02-02T03:23:34.635Z,928.36
2019-02-02T03:24:34.703Z,928.37
2019-02-02T03:25:34.726Z,928.36
2019-02-02T03:26:34.811Z,928.32
2019-02-02T03:27:34.828Z,928.31
2019-02-02T03:28:34.870Z,928.33
2019-02-02T03:29:34.949Z,928.30
2019-02-02T03:30:34.999Z,928.34
2019-02-02T03:31:35.072Z,928.33
2019-02-02T03:32:35.054Z,928.30
2019-02-02T03:33:35.244Z,928.30
2019-02-02T03:34:35.154Z,928.28
2019-02-02T03:35:35.188Z,928.25
2019-02-02T03:36:35.283Z,928.24
2019-02-02T03:37:35.300Z,928.23
2019-02-02T03:38:35.365Z,928.26
2019-02-02T03:39:35.406Z,928.21
2019-02-02T03:40:35.451Z,928.19
2019-02-02T03:41:35.507Z,928.16
2019-02-02T03:42:35.550Z,928.11
2019-02-02T03:43:35.589Z,928.11
2019-02-02T03:44:35.622Z,928.13
2019-02-02T03:45:35.688Z,928.10
2019-02-02T03:46:35.729Z,928.11
2019-02-02T03:47:35.805Z,928.10
2019-02-02T03:48:35.823Z,928.10
2019-02-02T03:49:35.894Z,928.08
2019-02-02T03:50:35.939Z,928.07
2019-02-02T03:51:36.001Z,928.06
2019-02-02T03:52:36.092Z,928.07
2019-02-02T03:53:36.099Z,928.06
2019-02-02T03:54:36.132Z,928.06
2019-02-02T03:55:36.194Z,928.06
2019-02-02T03:56:36.241Z,928.05
2019-02-02T03:57:36.288Z,928.05
2019-02-02T03:58:36.323Z,928.07
2019-02-02T03:59:36.361Z,928.11
2019-02-02T04:00:36.433Z,928.12
2019-02-02T04:01:36.485Z,928.11
2019-02-02T04:02:36.544Z,928.13
2019-02-02T04:03:36.575Z,928.12
2019-02-02T04:04:36.624Z,928.13
2019-02-02T04:05:36.673Z,928.06
2019-02-02T04:06:36.725Z,928.07
2019-02-02T04:07:36.930Z,928.08
2019-02-02T04:08:36.822Z,928.03
2019-02-02T04:09:36.863Z,928.03
2019-02-02T04:10:36.934Z,927.98
2019-02-02T04:11:36.966Z,927.97
2019-02-02T04:12:37.042Z,927.94
2019-02-02T04:13:37.044Z,927.93
2019-02-02T04:14:37.094Z,927.98
2019-02-02T04:15:37.171Z,927.96
2019-02-02T04:16:37.203Z,927.95
2019-02-02T04:17:37.270Z,927.89
2019-02-02T04:18:37.331Z,927.89
2019-02-02T04:19:37.346Z,927.89
2019-02-02T04:20:37.414Z,927.90
2019-02-02T04:21:37.471Z,927.84
2019-02-02T04:22:37.562Z,927.86
2019-02-02T04:23:37.539Z,927.81
2019-02-02T04:24:37.593Z,927.83
2019-02-02T04:25:37.642Z,927.81
2019-02-02T04:26:37.683Z,927.81
2019-02-02T04:27:37.797Z,927.80
2019-02-02T04:28:37.775Z,927.82
2019-02-02T04:29:37.829Z,927.83
2019-02-02T04:30:37.987Z,927.83
2019-02-02T04:31:37.935Z,927.80
2019-02-02T04:32:37.987Z,927.76
2019-02-02T04:33:38.030Z,927.75
2019-02-02T04:34:38.088Z,927.71
2019-02-02T04:35:38.144Z,927.66
2019-02-02T04:36:38.180Z,927.63
2019-02-02T04:37:38.480Z,927.57
2019-02-02T04:38:38.291Z,927.54
2019-02-02T04:39:38.332Z,927.58
2019-02-02T04:40:38.359Z,927.56
2019-02-02T04:41:38.451Z,927.57
2019-02-02T04:42:38.496Z,927.58
2019-02-02T04:43:38.525Z,927.60
2019-02-02T04:44:38.581Z,927.61
2019-02-02T04:45:38.617Z,927.59
2019-02-02T04:46:38.676Z,927.60
2019-02-02T04:47:38.707Z,927.61
2019-02-02T04:48:38.757Z,927.63
2019-02-02T04:49:38.800Z,927.63
2019-02-02T04:50:38.864Z,927.61
2019-02-02T04:51:38.903Z,927.60
2019-02-02T04:52:38.947Z,927.60
2019-02-02T04:53:39.041Z,927.59
2019-02-02T04:54:39.054Z,927.59
2019-02-02T04:55:39.095Z,927.59
2019-02-02T04:56:39.158Z,927.54
2019-02-02T04:57:39.203Z,927.54
2019-02-02T04:58:39.255Z,927.48
2019-02-02T04:59:39.307Z,927.48
2019-02-02T05:00:39.368Z,927.47
2019-02-02T05:01:39.391Z,927.49
2019-02-02T05:02:39.452Z,927.48
2019-02-02T05:03:39.470Z,927.49
2019-02-02T05:04:39.554Z,927.45
2019-02-02T05:05:39.598Z,927.48
2019-02-02T05:06:39.678Z,927.45
2019-02-02T05:07:39.702Z,927.42
2019-02-02T05:08:39.765Z,927.47
2019-02-02T05:09:39.794Z,927.46
2019-02-02T05:10:39.845Z,927.45
2019-02-02T05:11:39.893Z,927.41
2019-02-02T05:12:39.937Z,927.42
2019-02-02T05:13:39.991Z,927.42
2019-02-02T05:14:40.033Z,927.40
2019-02-02T05:15:40.069Z,927.39
2019-02-02T05:16:40.132Z,927.39
2019-02-02T05:17:40.181Z,927.38
2019-02-02T05:18:40.349Z,927.40
2019-02-02T05:19:40.253Z,927.42
2019-02-02T05:20:40.322Z,927.43
2019-02-02T05:21:40.388Z,927.43
2019-02-02T05:22:40.442Z,927.47
2019-02-02T05:23:40.468Z,927.51
2019-02-02T05:24:40.547Z,927.50
2019-02-02T05:25:40.565Z,927.51
2019-02-02T05:26:40.594Z,927.53
2019-02-02T05:27:40.684Z,927.52
2019-02-02T05:28:40.687Z,927.49
2019-02-02T05:29:41.830Z,927.49
2019-02-02T05:30:40.841Z,927.49
2019-02-02T05:31:40.866Z,927.51
2019-02-02T05:32:40.903Z,927.51
2019-02-02T05:33:40.952Z,927.52
2019-02-02T05:34:41.022Z,927.51
2019-02-02T05:35:41.041Z,927.52
2019-02-02T05:36:41.098Z,927.52
2019-02-02T05:37:41.185Z,927.52
2019-02-02T05:38:41.198Z,927.52
2019-02-02T05:39:41.217Z,927.51
2019-02-02T05:40:41.332Z,927.51
2019-02-02T05:41:41.343Z,927.50
2019-02-02T05:42:41.396Z,927.53
2019-02-02T05:43:41.430Z,927.54
2019-02-02T05:44:41.485Z,927.53
2019-02-02T05:45:41.542Z,927.56
2019-02-02T05:46:41.595Z,927.57
2019-02-02T05:47:41.601Z,927.58
2019-02-02T05:48:41.709Z,927.59
2019-02-02T05:49:41.706Z,927.60
2019-02-02T05:50:41.758Z,927.62
2019-02-02T05:51:41.831Z,927.64
2019-02-02T05:52:41.855Z,927.69
2019-02-02T05:53:41.923Z,927.67
2019-02-02T05:54:41.961Z,927.67
2019-02-02T05:55:42.015Z,927.65
2019-02-02T05:56:42.064Z,927.71
2019-02-02T05:57:42.111Z,927.70
2019-02-02T05:58:42.158Z,927.73
2019-02-02T05:59:52.259Z,927.73
2019-02-02T06:00:42.251Z,927.77
2019-02-02T06:01:42.302Z,927.76
2019-02-02T06:02:42.355Z,927.76
2019-02-02T06:03:42.410Z,927.75
2019-02-02T06:04:42.444Z,927.75
2019-02-02T06:05:42.488Z,927.71
2019-02-02T06:06:42.581Z,927.72
2019-02-02T06:07:42.589Z,927.72
2019-02-02T06:08:42.633Z,927.71
2019-02-02T06:09:42.680Z,927.72
2019-02-02T06:10:42.743Z,927.73
2019-02-02T06:11:42.786Z,927.74
2019-02-02T06:12:42.837Z,927.71
2019-02-02T06:13:42.879Z,927.70
2019-02-02T06:14:42.915Z,927.70
2019-02-02T06:15:42.995Z,927.72
2019-02-02T06:16:43.015Z,927.70
2019-02-02T06:17:43.069Z,927.66
2019-02-02T06:18:43.140Z,927.64
2019-02-02T06:19:43.149Z,927.65
2019-02-02T06:20:43.223Z,927.65
2019-02-02T06:21:43.288Z,927.68
2019-02-02T06:22:43.357Z,927.66
2019-02-02T06:23:43.342Z,927.64
2019-02-02T06:24:43.431Z,927.64
2019-02-02T06:25:43.516Z,927.61
2019-02-02T06:26:43.517Z,927.61
2019-02-02T06:27:43.533Z,927.58
2019-02-02T06:28:43.659Z,927.55
2019-02-02T06:29:43.661Z,927.49
2019-02-02T06:30:43.707Z,927.53
2019-02-02T06:31:43.747Z,927.49
2019-02-02T06:32:43.840Z,927.53
2019-02-02T06:33:43.853Z,927.49
2019-02-02T06:34:43.901Z,927.49
2019-02-02T06:35:43.936Z,927.45
2019-02-02T06:36:44.000Z,927.46
2019-02-02T06:37:44.022Z,927.49
2019-02-02T06:38:44.125Z,927.52
2019-02-02T06:39:44.147Z,927.55
2019-02-02T06:40:44.203Z,927.55
2019-02-02T06:41:44.232Z,927.53
2019-02-02T06:42:44.295Z,927.54
2019-02-02T06:43:44.350Z,927.57
2019-02-02T06:44:44.560Z,927.51
2019-02-02T06:45:44.412Z,927.54
2019-02-02T06:46:44.481Z,927.56
2019-02-02T06:47:44.542Z,927.56
2019-02-02T06:48:44.588Z,927.57
2019-02-02T06:49:44.641Z,927.59
2019-02-02T06:50:44.664Z,927.60
2019-02-02T06:51:44.706Z,927.58
2019-02-02T06:52:44.759Z,927.60
2019-02-02T06:53:44.856Z,927.65
2019-02-02T06:54:44.849Z,927.64
2019-02-02T06:55:44.903Z,927.66
2019-02-02T06:56:44.964Z,927.69
2019-02-02T06:57:45.051Z,927.70
2019-02-02T06:58:45.054Z,927.71
2019-02-02T06:59:45.087Z,927.66
2019-02-02T07:00:45.154Z,927.70
2019-02-02T07:01:45.182Z,927.68
2019-02-02T07:02:45.231Z,927.65
2019-02-02T07:03:45.302Z,927.65
2019-02-02T07:04:45.335Z,927.69
2019-02-02T07:05:45.404Z,927.66
2019-02-02T07:06:45.427Z,927.61
2019-02-02T07:07:45.489Z,927.61
2019-02-02T07:08:45.542Z,927.64
2019-02-02T07:09:45.582Z,927.64
2019-02-02T07:10:45.626Z,927.61
2019-02-02T07:11:45.674Z,927.58
2019-02-02T07:12:45.747Z,927.57
2019-02-02T07:13:45.786Z,927.57
2019-02-02T07:14:45.841Z,927.60
2019-02-02T07:15:45.911Z,927.59
2019-02-02T07:16:45.940Z,927.52
2019-02-02T07:17:45.958Z,927.54
2019-02-02T07:18:46.081Z,927.52
2019-02-02T07:19:46.074Z,927.51
2019-02-02T07:20:46.127Z,927.50
2019-02-02T07:21:46.161Z,927.53
2019-02-02T07:22:46.206Z,927.53
2019-02-02T07:23:46.266Z,927.52
2019-02-02T07:24:46.294Z,927.48
2019-02-02T07:25:46.341Z,927.48
2019-02-02T07:26:46.401Z,927.49
2019-02-02T07:27:46.431Z,927.51
2019-02-02T07:28:46.536Z,927.53
2019-02-02T07:29:46.608Z,927.58
2019-02-02T07:30:46.588Z,927.55
2019-02-02T07:31:46.650Z,927.55
2019-02-02T07:32:46.707Z,927.59
2019-02-02T07:33:46.750Z,927.59
2019-02-02T07:34:46.781Z,927.56
2019-02-02T07:35:46.832Z,927.60
2019-02-02T07:36:46.886Z,927.63
2019-02-02T07:37:46.935Z,927.63
2019-02-02T07:38:46.973Z,927.62
2019-02-02T07:39:47.020Z,927.67
2019-02-02T07:40:47.089Z,927.67
2019-02-02T07:41:47.134Z,927.68
2019-02-02T07:42:47.289Z,927.71
2019-02-02T07:43:47.243Z,927.70
2019-02-02T07:44:47.267Z,927.67
2019-02-02T07:45:47.320Z,927.68
2019-02-02T07:46:47.363Z,927.66
2019-02-02T07:47:47.386Z,927.65
2019-02-02T07:48:47.464Z,927.65
2019-02-02T07:49:47.492Z,927.69
2019-02-02T07:50:47.546Z,927.69
2019-02-02T07:51:47.593Z,927.72
2019-02-02T07:52:47.646Z,927.73
2019-02-02T07:53:47.691Z,927.74
2019-02-02T07:54:47.745Z,927.82
2019-02-02T07:55:47.784Z,927.83
2019-02-02T07:56:47.828Z,927.85
2019-02-02T07:57:47.888Z,927.85
2019-02-02T07:58:47.946Z,927.86
2019-02-02T07:59:47.979Z,927.88
2019-02-02T08:00:48.034Z,927.92
2019-02-02T08:01:48.081Z,927.95
2019-02-02T08:02:48.116Z,927.93
2019-02-02T08:03:48.156Z,927.95
2019-02-02T08:04:48.228Z,927.95
2019-02-02T08:05:48.284Z,927.95
2019-02-02T08:06:48.307Z,927.92
2019-02-02T08:07:48.343Z,927.92
2019-02-02T08:08:48.413Z,927.87
2019-02-02T08:09:48.482Z,927.90
2019-02-02T08:10:48.512Z,927.88
2019-02-02T08:11:48.556Z,927.88
2019-02-02T08:12:48.628Z,927.87
2019-02-02T08:13:48.648Z,927.90
2019-02-02T08:14:48.702Z,927.84
2019-02-02T08:15:48.774Z,927.88
2019-02-02T08:16:48.772Z,927.86
2019-02-02T08:17:48.837Z,927.89
2019-02-02T08:18:48.887Z,927.84
2019-02-02T08:19:48.927Z,927.82
2019-02-02T08:20:48.988Z,927.77
2019-02-02T08:21:49.024Z,927.76
2019-02-02T08:22:49.084Z,927.72
2019-02-02T08:23:49.143Z,927.74
2019-02-02T08:24:49.182Z,927.78
2019-02-02T08:25:49.338Z,927.78
2019-02-02T08:26:49.302Z,927.75
2019-02-02T08:27:49.327Z,927.79
2019-02-02T08:28:49.351Z,927.83
2019-02-02T08:29:49.417Z,927.81
2019-02-02T08:30:52.319Z,927.83
2019-02-02T08:31:49.494Z,927.84
2019-02-02T08:32:49.551Z,927.85
2019-02-02T08:33:49.581Z,927.86
2019-02-02T08:34:49.687Z,927.92
2019-02-02T08:35:49.709Z,927.92
2019-02-02T08:36:49.732Z,927.88
2019-02-02T08:37:49.791Z,927.87
2019-02-02T08:38:49.822Z,927.84
2019-02-02T08:39:49.884Z,927.87
2019-02-02T08:40:49.934Z,927.83
2019-02-02T08:41:50.863Z,927.83
2019-02-02T08:42:50.025Z,927.84
2019-02-02T08:43:50.083Z,927.81
2019-02-02T08:44:50.115Z,927.82
2019-02-02T08:45:50.154Z,927.81
2019-02-02T08:46:50.212Z,927.81
2019-02-02T08:47:50.257Z,927.85
2019-02-02T08:48:50.300Z,927.86
2019-02-02T08:49:50.364Z,927.89
2019-02-02T08:50:50.451Z,927.90
2019-02-02T08:51:50.468Z,927.95
2019-02-02T08:52:50.538Z,927.94
2019-02-02T08:53:50.560Z,927.97
2019-02-02T08:54:50.632Z,928.00
2019-02-02T08:55:51.952Z,927.99
2019-02-02T08:56:50.667Z,928.01
2019-02-02T08:57:50.813Z,928.00
2019-02-02T08:58:50.783Z,928.01
2019-02-02T08:59:50.844Z,927.95
2019-02-02T09:00:50.888Z,928.05
2019-02-02T09:01:50.929Z,928.05
2019-02-02T09:02:51.008Z,928.07
2019-02-02T09:03:51.224Z,928.11
2019-02-02T09:04:51.097Z,928.11
2019-02-02T09:05:51.381Z,928.11
2019-02-02T09:06:51.162Z,928.11
2019-02-02T09:07:51.205Z,928.15
2019-02-02T09:08:51.250Z,928.21
2019-02-02T09:09:51.307Z,928.27
2019-02-02T09:10:51.365Z,928.34
2019-02-02T09:11:51.404Z,928.41
2019-02-02T09:12:51.476Z,928.43
2019-02-02T09:13:51.496Z,928.51
2019-02-02T09:14:51.520Z,928.56
2019-02-02T09:15:51.584Z,928.59
2019-02-02T09:16:51.689Z,928.62
2019-02-02T09:17:51.681Z,928.64
2019-02-02T09:18:51.743Z,928.67
2019-02-02T09:19:51.790Z,928.66
2019-02-02T09:20:51.832Z,928.67
2019-02-02T09:21:51.891Z,928.65
2019-02-02T09:23:03.831Z,928.68
2019-02-02T09:23:52.036Z,928.68
2019-02-02T09:24:52.157Z,928.67
2019-02-02T09:25:52.061Z,928.67
2019-02-02T09:26:52.104Z,928.63
2019-02-02T09:27:52.173Z,928.60
2019-02-02T09:28:52.209Z,928.57
2019-02-02T09:29:52.243Z,928.57
2019-02-02T09:30:52.298Z,928.60
2019-02-02T09:31:52.373Z,928.59
2019-02-02T09:32:52.403Z,928.66
2019-02-02T09:33:52.463Z,928.64
2019-02-02T09:34:52.495Z,928.69
2019-02-02T09:35:52.549Z,928.65
2019-02-02T09:36:52.607Z,928.65
2019-02-02T09:37:52.651Z,928.63
2019-02-02T09:38:52.695Z,928.58
2019-02-02T09:39:52.771Z,928.56
2019-02-02T09:40:52.807Z,928.52
2019-02-02T09:41:52.823Z,928.51
2019-02-02T09:42:52.921Z,928.49
2019-02-02T09:43:52.937Z,928.49
2019-02-02T09:44:53.004Z,928.46
2019-02-02T09:45:53.014Z,928.45
2019-02-02T09:46:53.091Z,928.46
2019-02-02T09:47:53.119Z,928.48
2019-02-02T09:48:53.178Z,928.51
2019-02-02T09:49:53.224Z,928.51
2019-02-02T09:50:53.317Z,928.52
2019-02-02T09:51:53.326Z,928.52
2019-02-02T09:52:53.530Z,928.57
2019-02-02T09:53:53.755Z,928.58
2019-02-02T09:54:53.443Z,928.59
2019-02-02T09:55:53.564Z,928.60
2019-02-02T09:56:53.574Z,928.60
2019-02-02T09:57:55.012Z,928.65
2019-02-02T09:58:53.677Z,928.65
2019-02-02T09:59:53.722Z,928.66
2019-02-02T10:00:53.757Z,928.67
2019-02-02T10:01:53.851Z,928.71
2019-02-02T10:02:53.846Z,928.70
2019-02-02T10:03:53.901Z,928.66
2019-02-02T10:04:53.934Z,928.66
2019-02-02T10:05:54.000Z,928.64
2019-02-02T10:06:54.052Z,928.58
2019-02-02T10:07:54.117Z,928.57
2019-02-02T10:08:54.127Z,928.57
2019-02-02T10:09:54.203Z,928.59
2019-02-02T10:10:54.228Z,928.55
2019-02-02T10:11:54.285Z,928.63
2019-02-02T10:12:54.347Z,928.64
2019-02-02T10:13:54.372Z,928.65
2019-02-02T10:14:54.552Z,928.65
2019-02-02T10:15:54.491Z,928.73
2019-02-02T10:16:54.541Z,928.68
2019-02-02T10:17:54.591Z,928.70
2019-02-02T10:18:54.618Z,928.70
2019-02-02T10:19:54.684Z,928.73
2019-02-02T10:21:03.669Z,928.77
2019-02-02T10:21:54.788Z,928.80
2019-02-02T10:22:54.844Z,928.77
2019-02-02T10:23:54.876Z,928.77
2019-02-02T10:24:54.987Z,928.71
2019-02-02T10:25:54.981Z,928.75
2019-02-02T10:26:55.016Z,928.75
2019-02-02T10:27:55.066Z,928.76
2019-02-02T10:28:55.137Z,928.77
2019-02-02T10:29:55.178Z,928.71
2019-02-02T10:30:55.222Z,928.82
2019-02-02T10:31:55.290Z,928.77
2019-02-02T10:32:55.362Z,928.84
2019-02-02T10:33:55.374Z,928.81
2019-02-02T10:34:55.451Z,928.82
2019-02-02T10:35:55.549Z,928.74
2019-02-02T10:36:55.625Z,928.79
2019-02-02T10:37:55.626Z,928.77
2019-02-02T10:38:55.672Z,928.81
2019-02-02T10:39:55.707Z,928.82
2019-02-02T10:40:55.784Z,928.80
2019-02-02T10:41:55.839Z,928.79
2019-02-02T10:42:55.885Z,928.75
2019-02-02T10:43:55.948Z,928.73
2019-02-02T10:44:55.989Z,928.73
2019-02-02T10:45:56.065Z,928.69
2019-02-02T10:46:56.116Z,928.66
2019-02-02T10:47:56.163Z,928.67
2019-02-02T10:48:56.247Z,928.66
2019-02-02T10:49:56.295Z,928.70
2019-02-02T10:50:56.348Z,928.69
2019-02-02T10:51:56.399Z,928.68
2019-02-02T10:52:56.449Z,928.65
2019-02-02T10:53:56.504Z,928.65
2019-02-02T10:54:56.594Z,928.65
2019-02-02T10:55:56.650Z,928.60
2019-02-02T10:56:56.687Z,928.54
2019-02-02T10:57:56.741Z,928.53
2019-02-02T10:58:56.814Z,928.56
2019-02-02T10:59:56.871Z,928.55
2019-02-02T11:00:56.922Z,928.53
2019-02-02T11:01:56.980Z,928.54
2019-02-02T11:02:57.028Z,928.51
2019-02-02T11:03:57.113Z,928.53
2019-02-02T11:04:57.297Z,928.51
2019-02-02T11:05:57.223Z,928.52
2019-02-02T11:06:57.318Z,928.56
2019-02-02T11:07:57.401Z,928.55
2019-02-02T11:08:57.501Z,928.55
2019-02-02T11:09:57.477Z,928.56
2019-02-02T11:10:57.557Z,928.57
2019-02-02T11:11:57.648Z,928.57
2019-02-02T11:12:57.647Z,928.56
2019-02-02T11:13:57.713Z,928.58
2019-02-02T11:14:57.779Z,928.52
2019-02-02T11:15:57.813Z,928.54
2019-02-02T11:16:57.912Z,928.51
2019-02-02T11:17:58.150Z,928.49
2019-02-02T11:18:57.991Z,928.50
2019-02-02T11:19:58.053Z,928.54
2019-02-02T11:20:58.115Z,928.51
2019-02-02T11:21:58.165Z,928.46
2019-02-02T11:22:58.526Z,928.46
2019-02-02T11:23:58.443Z,928.45
2019-02-02T11:24:58.390Z,928.36
2019-02-02T11:25:58.463Z,928.42
2019-02-02T11:26:58.600Z,928.44
2019-02-02T11:27:58.634Z,928.53
2019-02-02T11:28:58.625Z,928.46
2019-02-02T11:29:58.765Z,928.53
2019-02-02T11:30:58.719Z,928.52
2019-02-02T11:32:02.833Z,928.60
2019-02-02T11:32:58.836Z,928.61
2019-02-02T11:33:58.895Z,928.66
2019-02-02T11:34:58.973Z,928.67
2019-02-02T11:35:59.023Z,928.70
2019-02-02T11:36:59.073Z,928.75
2019-02-02T11:37:59.134Z,928.72
2019-02-02T11:38:59.737Z,928.75
2019-02-02T11:39:59.255Z,928.79
2019-02-02T11:40:59.311Z,928.76
2019-02-02T11:41:59.409Z,928.80
2019-02-02T11:42:59.431Z,928.80
2019-02-02T11:43:59.496Z,928.81
2019-02-02T11:44:59.560Z,928.78
2019-02-02T11:45:59.616Z,928.79
2019-02-02T11:46:59.658Z,928.79
2019-02-02T11:47:59.865Z,928.71
2019-02-02T11:48:59.813Z,928.73
2019-02-02T11:49:59.868Z,928.78
2019-02-02T11:50:59.900Z,928.79
2019-02-02T11:52:00.121Z,928.85
2019-02-02T11:53:00.052Z,928.81
2019-02-02T11:54:00.089Z,928.83
2019-02-02T11:55:00.359Z,928.84
2019-02-02T11:56:00.231Z,928.87
2019-02-02T11:57:00.277Z,928.90
2019-02-02T11:58:00.348Z,928.94
2019-02-02T11:59:00.452Z,928.89
2019-02-02T12:00:00.466Z,928.91
2019-02-02T12:01:00.522Z,928.90
2019-02-02T12:02:00.691Z,928.93
2019-02-02T12:03:00.649Z,928.94
2019-02-02T12:04:00.729Z,928.93
2019-02-02T12:05:00.776Z,928.96
2019-02-02T12:06:00.870Z,928.92
2019-02-02T12:07:00.902Z,928.94
2019-02-02T12:08:00.945Z,928.93
2019-02-02T12:09:01.037Z,928.96
2019-02-02T12:10:01.091Z,928.94
2019-02-02T12:11:01.144Z,928.95
2019-02-02T12:12:01.230Z,928.97
2019-02-02T12:13:01.352Z,928.97
2019-02-02T12:14:01.341Z,928.98
2019-02-02T12:15:01.422Z,928.91
2019-02-02T12:16:01.460Z,928.96
2019-02-02T12:17:01.526Z,928.90
2019-02-02T12:18:01.585Z,928.91
2019-02-02T12:19:01.657Z,928.93
2019-02-02T12:20:01.774Z,928.93
2019-02-02T12:21:01.770Z,928.88
2019-02-02T12:22:01.816Z,928.90
2019-02-02T12:23:01.901Z,928.85
2019-02-02T12:24:13.127Z,928.85
2019-02-02T12:25:02.387Z,928.87
2019-02-02T12:26:02.079Z,928.88
2019-02-02T12:27:02.148Z,928.90
2019-02-02T12:28:02.217Z,928.87
2019-02-02T12:29:02.260Z,928.88